Terminal Aerodrome Forecast
Issued by NWS St Louis, MO

Home | Current Version | Previous Version | Text Only | Print | Product List | Glossary On
Versions: 1 2 3 4 5 6 7 8 9 10 11 12 13 14 15 16 17 18 19 20 21 22 23 24 25 26 27 28 29 30 31
000
FTUS43 KLSX 200850 AAA
TAFSTL
TAF AMD
KSTL 200850Z 2009/2112 20010KT P6SM OVC250
     FM201200 20009KT P6SM OVC018
     FM201800 20009KT P6SM OVC025
     FM210000 15009KT P6SM OVC018
     FM210600 15008KT 5SM BR OVC010=

USA.gov is the U.S. government's official web portal to all federal, state and local government web resources and services.